createdAt,value
2023-02-18T00:00:39.778Z,9.88
2023-02-18T00:05:42.611Z,9.96
2023-02-18T00:10:45.553Z,9.80
2023-02-18T00:15:49.854Z,9.69
2023-02-18T00:20:52.742Z,9.77
2023-02-18T00:26:00.457Z,9.92
2023-02-18T00:31:08.768Z,10.08
2023-02-18T00:36:13.346Z,10.45
2023-02-18T00:41:16.559Z,10.82
2023-02-18T00:46:21.176Z,10.36
2023-02-18T00:51:25.414Z,10.37
2023-02-18T00:56:28.354Z,10.22
2023-02-18T01:01:33.545Z,10.97
2023-02-18T01:06:37.692Z,11.19
2023-02-18T01:11:41.888Z,11.00
2023-02-18T01:16:46.807Z,10.92
2023-02-18T01:21:49.668Z,10.04
2023-02-18T01:26:52.554Z,10.06
2023-02-18T01:31:57.001Z,9.99
2023-02-18T01:36:59.993Z,10.11
2023-02-18T01:42:02.856Z,10.22
2023-02-18T01:47:07.144Z,10.48
2023-02-18T01:52:10.958Z,10.93
2023-02-18T01:57:15.296Z,10.73
2023-02-18T02:02:21.158Z,10.51
2023-02-18T02:07:25.665Z,10.41
2023-02-18T02:12:46.156Z,10.40
2023-02-18T02:17:55.735Z,10.43
2023-02-18T02:23:13.742Z,10.66
2023-02-18T02:28:32.984Z,10.93
2023-02-18T02:33:51.224Z,11.21
2023-02-18T02:39:04.443Z,11.27
2023-02-18T02:44:13.645Z,11.40
2023-02-18T02:49:26.863Z,11.40
2023-02-18T02:54:35.166Z,11.44
2023-02-18T02:59:41.267Z,11.44
2023-02-18T03:04:54.510Z,11.37
2023-02-18T03:10:12.740Z,11.60
2023-02-18T03:15:22.950Z,11.42
2023-02-18T03:20:29.146Z,11.61
2023-02-18T03:25:35.516Z,11.39
2023-02-18T03:30:42.103Z,11.52
2023-02-18T03:35:48.117Z,11.71
2023-02-18T03:40:54.936Z,11.48
2023-02-18T03:45:59.260Z,11.21
2023-02-18T03:51:03.320Z,11.18
2023-02-18T03:56:10.739Z,11.04
2023-02-18T04:01:14.755Z,10.85
2023-02-18T04:06:18.891Z,10.96
2023-02-18T04:11:27.096Z,10.85
2023-02-18T04:16:32.352Z,10.70
2023-02-18T04:21:36.492Z,10.66
2023-02-18T04:26:41.532Z,10.65
2023-02-18T04:31:44.615Z,10.65
2023-02-18T04:36:47.624Z,10.67
2023-02-18T04:41:52.023Z,10.68
2023-02-18T04:46:55.069Z,10.69
2023-02-18T04:51:58.291Z,10.66
2023-02-18T04:57:02.705Z,10.62
2023-02-18T05:02:05.896Z,10.54
2023-02-18T05:07:08.881Z,10.59
2023-02-18T05:12:13.272Z,10.60
2023-02-18T05:17:16.304Z,10.66
2023-02-18T05:22:19.261Z,10.75
2023-02-18T05:27:23.674Z,10.85
2023-02-18T05:32:26.617Z,11.02
2023-02-18T05:37:29.732Z,11.15
2023-02-18T05:42:34.281Z,11.02
2023-02-18T05:47:37.234Z,11.10
2023-02-18T05:52:40.394Z,11.05
2023-02-18T05:57:44.790Z,10.99
2023-02-18T06:02:47.815Z,11.04
2023-02-18T06:07:50.808Z,11.08
2023-02-18T06:12:55.189Z,11.03
2023-02-18T06:17:58.098Z,10.81
2023-02-18T06:23:01.059Z,10.73
2023-02-18T06:28:05.426Z,10.66
2023-02-18T06:33:08.334Z,10.53
2023-02-18T06:38:11.325Z,10.40
2023-02-18T06:43:15.619Z,10.40
2023-02-18T06:48:18.544Z,10.33
2023-02-18T06:53:21.518Z,10.27
2023-02-18T06:58:25.848Z,10.31
2023-02-18T07:03:29.199Z,10.26
2023-02-18T07:08:33.409Z,10.20
2023-02-18T07:13:37.766Z,10.19
2023-02-18T07:18:40.721Z,10.21
2023-02-18T07:23:43.626Z,10.17
2023-02-18T07:28:47.957Z,10.22
2023-02-18T07:33:50.951Z,10.32
2023-02-18T07:38:53.904Z,10.32
2023-02-18T07:43:58.273Z,10.35
2023-02-18T07:49:01.378Z,10.24
2023-02-18T07:54:04.356Z,10.19
2023-02-18T07:59:08.597Z,10.36
2023-02-18T08:04:11.609Z,10.50
2023-02-18T08:09:14.753Z,10.52
2023-02-18T08:14:19.120Z,10.68
2023-02-18T08:19:22.094Z,10.93
2023-02-18T08:24:25.043Z,11.40
2023-02-18T08:29:31.242Z,11.71
2023-02-18T08:34:34.224Z,11.98
2023-02-18T08:39:39.278Z,12.10
2023-02-18T08:44:44.348Z,12.29
2023-02-18T08:49:47.315Z,12.52
2023-02-18T08:54:50.337Z,13.19
2023-02-18T08:59:54.705Z,14.80
2023-02-18T09:04:57.640Z,14.32
2023-02-18T09:10:00.618Z,13.27
2023-02-18T09:15:05.294Z,12.91
2023-02-18T09:20:09.018Z,13.08
2023-02-18T09:25:12.412Z,13.03
2023-02-18T09:30:17.280Z,12.79
2023-02-18T09:35:20.756Z,12.95
2023-02-18T09:40:26.979Z,13.06
2023-02-18T09:45:31.724Z,13.12
2023-02-18T09:50:35.490Z,13.22
2023-02-18T09:55:41.239Z,13.47
2023-02-18T10:00:47.648Z,13.80
2023-02-18T10:05:56.753Z,13.86
2023-02-18T10:10:59.780Z,14.07
2023-02-18T10:16:05.194Z,14.11
2023-02-18T10:21:10.526Z,14.05
2023-02-18T10:26:16.889Z,14.16
2023-02-18T10:31:29.190Z,14.37
2023-02-18T10:36:36.317Z,14.54
2023-02-18T10:41:47.533Z,14.75
2023-02-18T10:46:59.751Z,15.03
2023-02-18T10:52:05.936Z,15.16
2023-02-18T10:57:20.155Z,15.32
2023-02-18T11:02:28.374Z,15.62
2023-02-18T11:07:33.753Z,17.36
2023-02-18T11:12:43.800Z,18.56
2023-02-18T11:17:49.668Z,17.36
2023-02-18T11:22:52.982Z,16.83
2023-02-18T11:27:57.791Z,16.54
2023-02-18T11:33:04.214Z,16.46
2023-02-18T11:38:18.869Z,16.01
2023-02-18T11:43:22.140Z,15.75
2023-02-18T11:48:26.802Z,15.71
2023-02-18T11:53:30.628Z,15.81
2023-02-18T11:58:39.457Z,15.76
2023-02-18T12:03:45.639Z,15.79
2023-02-18T12:08:50.498Z,15.79
2023-02-18T12:13:55.291Z,15.84
2023-02-18T12:19:21.463Z,15.87
2023-02-18T12:24:31.997Z,15.91
2023-02-18T12:29:41.483Z,16.02
2023-02-18T12:34:54.520Z,16.17
2023-02-18T12:40:05.806Z,16.15
2023-02-18T12:45:24.006Z,16.29
2023-02-18T12:50:35.830Z,16.42
2023-02-18T12:55:45.126Z,16.44
2023-02-18T13:01:06.640Z,16.53
2023-02-18T13:06:19.435Z,16.37
2023-02-18T13:11:28.991Z,16.60
2023-02-18T13:16:32.877Z,16.74
2023-02-18T13:21:37.885Z,16.89
2023-02-18T13:26:43.117Z,16.99
2023-02-18T13:31:52.192Z,16.96
2023-02-18T13:37:03.545Z,17.09
2023-02-18T13:42:14.413Z,17.13
2023-02-18T13:47:36.756Z,17.35
2023-02-18T13:52:41.043Z,17.19
2023-02-18T13:57:43.891Z,17.69
2023-02-18T14:02:57.338Z,17.84
2023-02-18T14:08:08.132Z,18.42
2023-02-18T14:13:25.864Z,18.41
2023-02-18T14:18:49.490Z,18.65
2023-02-18T14:24:06.204Z,18.69
2023-02-18T14:29:13.334Z,19.14
2023-02-18T14:34:39.637Z,18.98
2023-02-18T14:39:53.761Z,19.39
2023-02-18T14:45:08.343Z,19.39
2023-02-18T14:50:13.455Z,19.35
2023-02-18T14:55:20.587Z,18.52
2023-02-18T15:00:24.819Z,18.28
2023-02-18T15:05:31.799Z,18.44
2023-02-18T15:10:43.017Z,18.37
2023-02-18T15:15:47.832Z,18.44
2023-02-18T15:20:52.379Z,18.45
2023-02-18T15:26:01.606Z,18.55
2023-02-18T15:31:05.603Z,18.34
2023-02-18T15:36:14.031Z,18.21
2023-02-18T15:41:18.986Z,18.10
2023-02-18T15:46:22.804Z,18.11
2023-02-18T15:51:30.599Z,18.03
2023-02-18T15:56:37.008Z,17.86
2023-02-18T16:01:39.873Z,17.82
2023-02-18T16:06:47.168Z,17.63
2023-02-18T16:11:55.385Z,17.73
2023-02-18T16:17:05.604Z,17.78
2023-02-18T16:22:09.780Z,17.74
2023-02-18T16:27:18.987Z,17.74
2023-02-18T16:32:26.305Z,17.81
2023-02-18T16:37:42.038Z,17.76
2023-02-18T16:42:46.331Z,17.64
2023-02-18T16:48:13.551Z,17.58
2023-02-18T16:53:17.165Z,17.51
2023-02-18T16:58:21.417Z,17.41
2023-02-18T17:03:24.328Z,17.35
2023-02-18T17:08:28.170Z,17.38
2023-02-18T17:13:32.445Z,17.27
2023-02-18T17:18:39.795Z,17.23
2023-02-18T17:23:46.302Z,17.32
2023-02-18T17:29:15.473Z,17.24
2023-02-18T17:35:43.658Z,17.25
2023-02-18T17:40:40.720Z,17.18
2023-02-18T17:46:06.647Z,17.17
2023-02-18T17:51:40.026Z,17.09
2023-02-18T17:56:54.631Z,17.09
2023-02-18T18:20:34.707Z,16.73
2023-02-18T18:25:04.878Z,16.56
2023-02-18T18:30:10.003Z,16.52
2023-02-18T18:35:20.265Z,16.54
2023-02-18T18:40:29.437Z,16.52
2023-02-18T18:45:34.576Z,16.39
2023-02-18T18:50:39.785Z,16.35
2023-02-18T18:55:44.977Z,16.34
2023-02-18T19:00:50.598Z,16.30
2023-02-18T19:05:53.663Z,16.27
2023-02-18T19:10:58.382Z,16.25
2023-02-18T19:16:02.535Z,16.24
2023-02-18T19:21:07.218Z,16.07
2023-02-18T19:26:14.213Z,15.98
2023-02-18T19:31:18.551Z,15.97
2023-02-18T19:36:21.460Z,15.87
2023-02-18T19:41:25.797Z,15.83
2023-02-18T19:46:28.722Z,15.65
2023-02-18T19:51:32.904Z,15.49
2023-02-18T19:56:39.382Z,15.43
2023-02-18T20:01:42.529Z,15.33
2023-02-18T20:06:45.560Z,15.07
2023-02-18T20:11:51.924Z,15.07
2023-02-18T20:16:55.815Z,15.07
2023-02-18T20:22:01.313Z,15.00
2023-02-18T20:27:06.314Z,14.98
2023-02-18T20:32:09.707Z,14.79
2023-02-18T20:37:12.855Z,14.66
2023-02-18T20:42:18.812Z,14.50
2023-02-18T20:47:21.799Z,14.46
2023-02-18T20:52:26.462Z,14.34
2023-02-18T20:57:33.663Z,14.24
2023-02-18T21:02:37.949Z,14.24
2023-02-18T21:07:42.054Z,13.94
2023-02-18T21:12:49.272Z,13.94
2023-02-18T21:17:53.436Z,13.83
2023-02-18T21:22:57.170Z,13.72
2023-02-18T21:28:01.912Z,13.58
2023-02-18T21:33:05.808Z,13.47
2023-02-18T21:38:09.388Z,13.41
2023-02-18T21:43:16.459Z,13.31
2023-02-18T21:48:36.664Z,13.20
2023-02-18T21:53:42.188Z,13.18
2023-02-18T21:58:47.378Z,13.14
2023-02-18T22:03:51.514Z,13.08
2023-02-18T22:08:55.060Z,13.01
2023-02-18T22:14:00.143Z,13.03
2023-02-18T22:24:36.625Z,12.49
2023-02-18T22:29:42.670Z,12.54
2023-02-18T22:34:47.022Z,12.68
2023-02-18T22:39:53.275Z,12.56
2023-02-18T22:45:03.594Z,12.20
2023-02-18T22:50:07.758Z,12.54
2023-02-18T22:55:11.961Z,12.82
2023-02-18T23:00:19.161Z,12.77
2023-02-18T23:05:23.357Z,12.94
2023-02-18T23:10:27.582Z,12.39
2023-02-18T23:15:35.792Z,12.14
2023-02-18T23:20:57.057Z,12.06
2023-02-18T23:26:12.401Z,12.21
2023-02-18T23:31:30.074Z,12.25
2023-02-18T23:36:34.467Z,12.43
2023-02-18T23:41:41.958Z,12.13
2023-02-18T23:47:04.760Z,11.98
2023-02-18T23:52:16.952Z,11.69
2023-02-18T23:57:25.325Z,11.62
